Time;durP1;ratioP1;P1;durP2;ratioP2;P2;SDS_P1;SDS_P2;PMS_P1;PMS_P2;Temp;Humidity;BMP_temperature;BMP_pressure;BME280_temperature;BME280_humidity;BME280_pressure;Samples;Min_cycle;Max_cycle;Signal;HPM_P1;HPM_P2
2022/11/11 00:01:19;;;;;;;14.30;7.80;;;5.10;99.90;;;;;;5064045;28;20551;-69
2022/11/11 00:03:44;;;;;;;19.05;8.63;;;5.10;99.90;;;;;;5057971;28;20489;-68
2022/11/11 00:06:13;;;;;;;14.52;8.48;;;5.00;99.90;;;;;;5060292;28;20031;-68
2022/11/11 00:08:38;;;;;;;16.67;9.02;;;5.00;99.90;;;;;;5059717;28;20025;-71
2022/11/11 00:11:07;;;;;;;17.48;8.88;;;5.00;99.90;;;;;;5063790;28;20032;-70
2022/11/11 00:13:34;;;;;;;14.55;8.25;;;5.10;99.90;;;;;;5060612;28;20079;-70
2022/11/11 00:16:14;;;;;;;19.27;9.05;;;5.10;99.90;;;;;;5062182;28;20115;-72
2022/11/11 00:27:05;;;;;;;17.90;9.05;;;5.20;99.90;;;;;;5029987;28;20095;-69
2022/11/11 00:29:31;;;;;;;17.52;8.18;;;5.30;99.90;;;;;;5028885;28;20037;-70
2022/11/11 00:35:51;;;;;;;11.32;7.50;;;5.20;99.90;;;;;;5029466;28;20111;-69
2022/11/11 00:37:26;;;;;;;13.52;7.68;;;5.20;99.90;;;;;;5029281;28;20033;-70
2022/11/11 00:39:52;;;;;;;17.10;8.50;;;5.10;99.90;;;;;;5029444;28;20041;-71
2022/11/11 00:42:17;;;;;;;14.63;8.20;;;5.00;99.90;;;;;;5030605;28;20100;-69
2022/11/11 00:44:43;;;;;;;18.98;9.88;;;5.00;99.90;;;;;;5029182;28;20041;-68
2022/11/11 00:52:37;;;;;;;18.27;8.82;;;4.90;99.90;;;;;;5029509;28;20044;-69
2022/11/11 00:55:04;;;;;;;20.02;9.70;;;4.90;99.90;;;;;;5029849;28;20037;-69
2022/11/11 00:57:29;;;;;;;18.00;10.15;;;5.00;99.90;;;;;;5029235;28;20549;-70
2022/11/11 00:59:55;;;;;;;20.67;9.52;;;4.90;99.90;;;;;;5029510;28;20216;-71
2022/11/11 01:02:20;;;;;;;17.45;10.23;;;5.00;99.90;;;;;;5030026;28;20445;-73
2022/11/11 01:04:46;;;;;;;19.02;9.88;;;5.00;99.90;;;;;;5029177;28;20036;-69
2022/11/11 01:07:11;;;;;;;16.27;9.10;;;5.00;99.90;;;;;;5029075;28;20500;-68
2022/11/11 01:09:37;;;;;;;20.80;9.85;;;5.00;99.90;;;;;;5028704;28;20041;-69
2022/11/11 01:12:03;;;;;;;15.10;9.40;;;4.90;99.90;;;;;;5030872;28;20037;-70
2022/11/11 01:14:29;;;;;;;17.52;10.55;;;4.90;99.90;;;;;;5029614;28;20026;-70
2022/11/11 01:16:55;;;;;;;18.30;10.45;;;4.90;99.90;;;;;;5030739;28;20049;-69
2022/11/11 01:19:20;;;;;;;20.40;10.35;;;4.80;99.90;;;;;;5041320;28;20064;-71
2022/11/11 01:21:46;;;;;;;18.98;9.63;;;4.80;99.90;;;;;;5061412;28;20055;-69
2022/11/11 01:24:11;;;;;;;17.15;9.40;;;4.90;99.90;;;;;;5063849;28;20032;-69
2022/11/11 01:26:37;;;;;;;15.00;8.60;;;4.90;99.90;;;;;;5053289;28;20052;-69
2022/11/11 01:29:03;;;;;;;20.33;9.73;;;4.90;99.90;;;;;;5054434;28;20032;-68
2022/11/11 01:31:28;;;;;;;12.68;8.45;;;4.80;99.90;;;;;;5056774;28;20033;-68
2022/11/11 01:33:54;;;;;;;13.40;8.55;;;4.80;99.90;;;;;;5074049;28;20107;-68
2022/11/11 01:36:23;;;;;;;12.38;7.72;;;4.70;99.90;;;;;;5054051;28;20035;-70
2022/11/11 01:38:52;;;;;;;15.10;7.85;;;4.70;99.90;;;;;;5065848;28;20043;-70
2022/11/11 01:41:33;;;;;;;13.68;8.13;;;4.60;99.90;;;;;;5061940;28;20056;-70
2022/11/11 01:44:01;;;;;;;18.27;8.32;;;4.50;99.90;;;;;;5054982;28;20111;-70
2022/11/11 01:46:35;;;;;;;15.15;8.00;;;4.40;99.90;;;;;;5052774;28;20394;-69
2022/11/11 01:49:28;;;;;;;14.32;7.97;;;4.40;99.90;;;;;;5056636;28;20060;-71
2022/11/11 01:52:09;;;;;;;15.20;9.32;;;4.30;99.90;;;;;;5057630;28;20033;-70
2022/11/11 01:54:50;;;;;;;20.40;9.27;;;4.30;99.90;;;;;;5052121;28;20036;-71
2022/11/11 01:57:22;;;;;;;18.75;8.60;;;4.40;99.90;;;;;;5059018;28;20036;-68
2022/11/11 01:59:52;;;;;;;19.38;9.23;;;4.40;99.90;;;;;;5053905;28;20040;-70
2022/11/11 02:02:26;;;;;;;15.60;9.20;;;4.30;99.90;;;;;;5054411;28;20043;-70
2022/11/11 02:07:38;;;;;;;16.27;8.82;;;4.30;99.90;;;;;;5056664;28;20118;-70
2022/11/11 02:10:07;;;;;;;12.98;8.38;;;4.30;99.90;;;;;;5072484;28;20033;-70
2022/11/11 02:15:17;;;;;;;14.75;8.27;;;4.20;99.90;;;;;;5058997;28;20038;-70
2022/11/11 02:17:43;;;;;;;11.05;7.65;;;4.20;99.90;;;;;;5069405;28;20099;-71
2022/11/11 02:20:12;;;;;;;13.98;8.60;;;4.10;99.90;;;;;;5059771;28;20135;-70
2022/11/11 02:22:52;;;;;;;13.27;8.73;;;4.10;99.90;;;;;;5069954;28;20028;-70
2022/11/11 02:25:21;;;;;;;15.02;8.85;;;4.10;99.90;;;;;;5071223;28;20397;-70
2022/11/11 02:27:50;;;;;;;16.63;9.80;;;4.10;99.90;;;;;;5064584;28;20055;-70
2022/11/11 02:30:19;;;;;;;19.37;9.10;;;4.10;99.90;;;;;;5062179;28;20488;-70
2022/11/11 02:32:47;;;;;;;21.73;9.40;;;4.10;99.90;;;;;;5065013;28;20028;-70
2022/11/11 02:35:33;;;;;;;17.15;9.30;;;4.10;99.90;;;;;;5056573;28;20063;-70
2022/11/11 02:38:06;;;;;;;14.40;8.68;;;4.10;99.90;;;;;;5061431;28;20029;-71
2022/11/11 02:41:55;;;;;;;14.73;8.50;;;4.10;99.90;;;;;;5054479;28;20478;-70
2022/11/11 02:43:30;;;;;;;14.60;8.02;;;4.00;99.90;;;;;;5070075;28;20413;-70
2022/11/11 02:45:57;;;;;;;16.90;9.60;;;4.00;99.90;;;;;;5055092;28;20036;-69
2022/11/11 02:48:23;;;;;;;14.00;9.02;;;4.00;99.90;;;;;;5061878;28;20029;-71
2022/11/11 02:50:49;;;;;;;12.95;8.43;;;3.90;99.90;;;;;;5071478;28;20044;-70
2022/11/11 02:53:14;;;;;;;11.95;8.10;;;3.90;99.90;;;;;;5071977;28;20041;-70
2022/11/11 02:55:40;;;;;;;10.88;7.72;;;3.90;99.90;;;;;;5042989;28;20191;-71
2022/11/11 02:58:06;;;;;;;16.10;8.45;;;3.90;99.90;;;;;;5061918;28;20035;-69
2022/11/11 03:00:31;;;;;;;11.63;8.40;;;3.80;99.90;;;;;;5059809;28;20048;-69
2022/11/11 03:02:57;;;;;;;16.05;8.68;;;3.80;99.90;;;;;;5066052;28;20112;-69
2022/11/11 03:05:23;;;;;;;13.55;8.40;;;3.80;99.90;;;;;;5069494;28;20020;-72
2022/11/11 03:07:48;;;;;;;16.05;8.13;;;3.80;99.90;;;;;;5061992;28;20490;-69
2022/11/11 03:10:14;;;;;;;16.05;7.80;;;3.80;99.90;;;;;;5061551;28;20533;-68
2022/11/11 03:12:40;;;;;;;14.98;7.78;;;3.80;99.90;;;;;;5052625;28;20021;-69
2022/11/11 03:15:06;;;;;;;11.95;7.88;;;3.80;99.90;;;;;;5061500;28;20029;-69
2022/11/11 03:17:40;;;;;;;20.88;8.40;;;3.80;99.90;;;;;;5051955;28;20474;-70
2022/11/11 03:23:13;;;;;;;13.85;8.65;;;3.80;99.90;;;;;;5064365;28;20460;-69
2022/11/11 03:25:43;;;;;;;18.38;9.60;;;3.80;99.90;;;;;;5069006;28;20025;-69
2022/11/11 03:28:14;;;;;;;15.63;9.13;;;3.70;99.90;;;;;;5052770;28;20482;-69
2022/11/11 03:30:42;;;;;;;13.20;8.27;;;3.70;99.90;;;;;;5053610;28;20612;-69
2022/11/11 03:33:08;;;;;;;16.25;9.05;;;3.70;99.90;;;;;;5067265;28;20472;-69
2022/11/11 03:35:35;;;;;;;18.60;9.02;;;3.70;99.90;;;;;;5070284;28;20108;-69
2022/11/11 03:41:03;;;;;;;17.17;8.70;;;3.70;99.90;;;;;;5008321;28;20046;-69
2022/11/11 03:43:33;;;;;;;14.52;8.70;;;3.70;99.90;;;;;;5057206;28;20044;-69
2022/11/11 03:46:00;;;;;;;13.85;8.57;;;3.70;99.90;;;;;;5035278;28;20076;-69
2022/11/11 03:48:32;;;;;;;11.55;8.07;;;3.60;99.90;;;;;;5060401;28;20059;-70
2022/11/11 03:50:58;;;;;;;12.95;8.95;;;3.60;99.90;;;;;;5065698;28;20039;-69
2022/11/11 03:53:24;;;;;;;15.55;8.25;;;3.60;99.90;;;;;;5055935;28;20036;-72
2022/11/11 03:55:50;;;;;;;12.80;8.15;;;3.60;99.90;;;;;;5070456;28;20074;-70
2022/11/11 03:58:17;;;;;;;14.55;9.07;;;3.60;99.90;;;;;;5071115;28;20031;-70
2022/11/11 04:00:43;;;;;;;19.52;9.38;;;3.50;99.90;;;;;;5068613;28;20709;-69
2022/11/11 04:11:37;;;;;;;15.60;8.20;;;3.50;99.90;;;;;;5064261;28;20094;-72
2022/11/11 04:17:05;;;;;;;20.30;10.23;;;3.40;99.90;;;;;;5044733;28;20045;-69
2022/11/11 04:22:28;;;;;;;17.15;10.38;;;3.30;99.90;;;;;;5018856;28;20036;-70
2022/11/11 04:27:38;;;;;;;13.27;9.07;;;3.30;99.90;;;;;;5060463;28;20048;-70
2022/11/11 04:30:04;;;;;;;16.65;9.43;;;3.30;99.90;;;;;;5056151;28;20037;-70
2022/11/11 04:32:39;;;;;;;13.82;9.68;;;3.30;99.90;;;;;;5062487;28;20481;-70
2022/11/11 04:35:07;;;;;;;18.85;9.65;;;3.40;99.90;;;;;;5059341;28;20079;-70
2022/11/11 04:37:44;;;;;;;18.63;10.05;;;3.50;99.90;;;;;;5058889;28;20029;-70
2022/11/11 04:42:55;;;;;;;24.92;13.80;;;3.50;99.90;;;;;;5059237;28;20040;-69
2022/11/11 04:45:34;;;;;;;26.05;15.32;;;3.50;99.90;;;;;;5058675;28;20037;-72
2022/11/11 04:48:04;;;;;;;22.02;13.63;;;3.50;99.90;;;;;;5061993;28;20029;-68
2022/11/11 04:50:38;;;;;;;23.55;12.80;;;3.50;99.90;;;;;;5066321;28;20037;-69
2022/11/11 04:53:06;;;;;;;17.35;12.25;;;3.50;99.90;;;;;;5055828;28;20048;-69
2022/11/11 04:58:18;;;;;;;22.40;13.05;;;3.30;99.90;;;;;;5059501;28;20104;-69
2022/11/11 05:00:43;;;;;;;20.10;12.55;;;3.30;99.90;;;;;;5063020;28;20033;-70
2022/11/11 05:03:16;;;;;;;21.92;12.30;;;3.20;99.90;;;;;;5059689;28;20083;-69
2022/11/11 05:08:55;;;;;;;19.08;11.52;;;3.10;99.90;;;;;;5064073;28;20028;-69
2022/11/11 05:11:38;;;;;;;19.77;12.85;;;3.10;99.90;;;;;;5064799;28;20037;-71
2022/11/11 05:22:30;;;;;;;21.58;12.98;;;3.00;99.90;;;;;;5062813;28;20118;-72
2022/11/11 05:27:40;;;;;;;21.58;14.05;;;3.10;99.90;;;;;;5066545;28;20413;-69
2022/11/11 05:30:08;;;;;;;26.33;13.40;;;3.00;99.90;;;;;;5073211;28;20032;-69
2022/11/11 05:32:34;;;;;;;26.85;14.73;;;3.00;99.90;;;;;;5055161;28;20112;-71
2022/11/11 05:35:00;;;;;;;25.52;14.07;;;3.00;99.90;;;;;;5053935;28;20108;-70
2022/11/11 05:37:25;;;;;;;19.65;12.63;;;3.10;99.90;;;;;;5070825;28;20017;-71
2022/11/11 05:39:51;;;;;;;19.95;13.10;;;3.10;99.90;;;;;;5060668;28;20033;-70
2022/11/11 05:42:17;;;;;;;27.08;14.68;;;3.10;99.90;;;;;;5068767;28;20029;-70
2022/11/11 05:44:42;;;;;;;23.50;13.80;;;3.20;99.90;;;;;;5070440;28;20190;-70
2022/11/11 05:47:08;;;;;;;21.55;13.50;;;3.20;99.90;;;;;;5063559;28;20036;-70
2022/11/11 05:49:34;;;;;;;21.10;12.98;;;3.20;99.90;;;;;;5054704;28;20371;-69
2022/11/11 05:52:00;;;;;;;22.23;12.77;;;3.20;99.90;;;;;;5064310;28;20040;-69
2022/11/11 05:54:25;;;;;;;17.80;11.65;;;3.10;99.90;;;;;;5070633;28;20037;-72
2022/11/11 05:56:51;;;;;;;20.48;12.75;;;3.10;99.90;;;;;;5067522;28;20045;-69
2022/11/11 05:59:17;;;;;;;19.30;12.00;;;3.10;99.90;;;;;;5069674;28;20040;-69
2022/11/11 06:01:44;;;;;;;23.02;14.18;;;3.10;99.90;;;;;;5053080;28;20604;-69
2022/11/11 06:04:09;;;;;;;23.15;14.65;;;3.10;99.90;;;;;;5062348;28;20039;-69
2022/11/11 06:06:35;;;;;;;19.30;13.82;;;3.10;99.90;;;;;;5057997;28;20029;-69
2022/11/11 06:09:02;;;;;;;23.80;12.75;;;3.10;99.90;;;;;;5070372;28;20063;-69
2022/11/11 06:11:28;;;;;;;20.13;12.15;;;3.10;99.90;;;;;;5070363;28;20024;-71
2022/11/11 06:13:54;;;;;;;24.70;12.30;;;3.10;99.90;;;;;;5069247;28;20100;-70
2022/11/11 06:16:20;;;;;;;20.60;11.68;;;3.10;99.90;;;;;;5058991;28;20035;-69
2022/11/11 06:18:45;;;;;;;17.63;11.80;;;3.10;99.90;;;;;;5068205;28;20441;-70
2022/11/11 06:21:11;;;;;;;17.95;11.27;;;3.10;99.90;;;;;;5062942;28;20489;-69
2022/11/11 06:23:37;;;;;;;23.65;13.05;;;3.10;99.90;;;;;;5065350;28;20036;-70
2022/11/11 06:26:12;;;;;;;21.95;12.50;;;3.10;99.90;;;;;;5052755;28;20072;-69
2022/11/11 06:28:44;;;;;;;24.55;13.18;;;3.10;99.90;;;;;;5052661;28;20059;-68
2022/11/11 06:31:12;;;;;;;22.77;13.52;;;3.10;99.90;;;;;;5070997;28;20616;-72
2022/11/11 06:33:38;;;;;;;24.48;14.68;;;3.20;99.90;;;;;;5065841;28;20104;-69
2022/11/11 06:36:05;;;;;;;25.23;14.15;;;3.10;99.90;;;;;;5054782;28;20079;-70
2022/11/11 06:38:31;;;;;;;21.08;12.35;;;3.20;99.90;;;;;;5060082;28;20055;-71
2022/11/11 06:40:56;;;;;;;20.08;13.15;;;3.10;99.90;;;;;;5060960;28;20414;-69
2022/11/11 06:43:22;;;;;;;23.48;13.52;;;3.10;99.90;;;;;;5059220;28;20381;-70
2022/11/11 06:45:53;;;;;;;22.60;14.63;;;3.10;99.90;;;;;;5057926;28;20024;-69
2022/11/11 06:48:20;;;;;;;21.63;13.77;;;3.00;99.90;;;;;;5062148;28;20029;-67
2022/11/11 06:50:46;;;;;;;31.75;16.35;;;3.10;99.90;;;;;;5057341;28;20068;-67
2022/11/11 06:53:14;;;;;;;26.60;14.50;;;3.10;99.90;;;;;;5046722;28;20024;-67
2022/11/11 06:55:40;;;;;;;28.83;14.65;;;3.10;99.90;;;;;;5070385;28;20457;-68
2022/11/11 06:58:15;;;;;;;24.95;12.95;;;3.20;99.90;;;;;;5064542;28;20059;-69
2022/11/11 07:00:41;;;;;;;24.33;14.88;;;3.20;99.90;;;;;;5069625;28;20048;-68
2022/11/11 07:03:10;;;;;;;26.02;13.55;;;3.30;99.90;;;;;;5066050;28;20025;-68
2022/11/11 07:05:36;;;;;;;23.20;14.15;;;3.40;99.90;;;;;;5061602;28;20050;-69
2022/11/11 07:08:03;;;;;;;30.98;16.27;;;3.40;99.90;;;;;;5072767;28;20111;-78
2022/11/11 07:10:29;;;;;;;31.55;16.50;;;3.40;99.90;;;;;;5071664;28;20413;-78
2022/11/11 07:12:55;;;;;;;27.15;16.38;;;3.50;99.90;;;;;;5045035;28;20020;-77
2022/11/11 07:15:20;;;;;;;31.38;17.90;;;3.60;99.90;;;;;;5054279;28;20409;-71
2022/11/11 07:17:46;;;;;;;28.20;16.10;;;3.70;99.90;;;;;;5053974;28;20061;-69
2022/11/11 07:20:12;;;;;;;28.85;16.20;;;3.70;99.90;;;;;;5062370;28;20472;-69
2022/11/11 07:22:37;;;;;;;25.98;14.48;;;3.80;99.90;;;;;;5065352;28;20024;-68
2022/11/11 07:25:03;;;;;;;28.17;16.90;;;3.80;99.90;;;;;;5062353;28;20453;-68
2022/11/11 07:27:29;;;;;;;24.90;15.23;;;3.90;99.90;;;;;;5060727;28;20127;-69
2022/11/11 07:29:54;;;;;;;25.80;13.68;;;3.90;99.90;;;;;;5058966;28;20124;-69
2022/11/11 07:32:20;;;;;;;18.50;11.85;;;4.00;99.90;;;;;;5046212;28;20029;-70
2022/11/11 07:34:45;;;;;;;18.98;12.50;;;4.10;99.90;;;;;;5052339;28;20387;-68
2022/11/11 07:37:11;;;;;;;18.00;12.30;;;4.20;99.90;;;;;;5053632;28;20032;-68
2022/11/11 07:39:37;;;;;;;20.30;13.13;;;4.30;99.90;;;;;;5058216;28;20024;-67
2022/11/11 07:42:02;;;;;;;18.17;12.45;;;4.40;99.90;;;;;;5061927;28;20037;-67
2022/11/11 07:44:28;;;;;;;25.92;14.85;;;4.50;99.90;;;;;;5055995;28;20055;-67
2022/11/11 07:46:53;;;;;;;17.50;10.98;;;4.60;99.90;;;;;;5058846;28;20115;-67
2022/11/11 07:49:19;;;;;;;20.65;10.80;;;4.70;99.90;;;;;;5071820;28;20374;-67
2022/11/11 07:51:45;;;;;;;14.43;10.43;;;4.70;99.90;;;;;;5053820;28;20113;-67
2022/11/11 07:54:10;;;;;;;14.40;11.27;;;4.70;99.90;;;;;;5057967;28;20485;-67
2022/11/11 07:56:36;;;;;;;17.50;11.80;;;4.70;99.90;;;;;;5063601;28;20048;-67
2022/11/11 07:59:02;;;;;;;19.58;12.32;;;4.80;99.90;;;;;;5066645;28;20036;-66
2022/11/11 08:01:27;;;;;;;19.25;11.75;;;4.80;99.90;;;;;;5066428;28;20116;-67
2022/11/11 08:03:53;;;;;;;14.57;10.25;;;4.90;99.90;;;;;;5065752;28;20059;-67
2022/11/11 08:06:20;;;;;;;16.88;10.32;;;4.90;99.90;;;;;;5051617;28;20028;-67
2022/11/11 08:08:46;;;;;;;13.95;8.95;;;5.00;99.90;;;;;;5052243;28;20017;-67
2022/11/11 08:11:13;;;;;;;12.63;9.55;;;5.10;99.90;;;;;;5050370;28;20519;-67
2022/11/11 08:13:39;;;;;;;16.63;9.55;;;5.20;99.90;;;;;;5066676;28;20020;-67
2022/11/11 08:16:06;;;;;;;12.88;7.70;;;5.20;99.90;;;;;;5068877;28;20029;-67
2022/11/11 08:18:33;;;;;;;19.08;7.75;;;5.30;99.90;;;;;;5068439;28;20055;-67
2022/11/11 08:20:59;;;;;;;12.32;8.25;;;5.40;99.90;;;;;;5053700;28;20528;-67
2022/11/11 08:23:31;;;;;;;10.32;6.40;;;5.40;99.90;;;;;;5060578;28;20029;-70
2022/11/11 08:26:01;;;;;;;13.55;6.97;;;5.50;99.90;;;;;;5054738;28;20108;-69
2022/11/11 08:28:28;;;;;;;12.82;6.45;;;5.60;99.90;;;;;;5057714;28;20389;-68
2022/11/11 08:30:56;;;;;;;10.23;7.05;;;5.60;99.90;;;;;;5061545;28;20394;-68
2022/11/11 08:33:22;;;;;;;10.75;7.18;;;5.50;99.90;;;;;;5059571;28;20056;-71
2022/11/11 08:35:48;;;;;;;10.43;6.72;;;5.60;99.90;;;;;;5068300;28;20354;-68
2022/11/11 08:38:13;;;;;;;9.50;5.68;;;5.60;99.90;;;;;;5063526;28;20029;-68
2022/11/11 08:40:39;;;;;;;10.02;6.22;;;5.60;99.90;;;;;;5052994;28;20371;-69
2022/11/11 08:43:05;;;;;;;10.00;6.50;;;5.60;99.90;;;;;;5061362;28;20033;-69
2022/11/11 08:45:30;;;;;;;10.88;6.78;;;5.60;99.90;;;;;;5058328;28;20019;-67
2022/11/11 08:47:56;;;;;;;8.95;6.80;;;5.60;99.90;;;;;;5060830;28;20450;-67
2022/11/11 08:50:22;;;;;;;9.23;6.38;;;5.60;99.90;;;;;;5049760;28;20067;-70
2022/11/11 08:52:51;;;;;;;9.70;6.25;;;5.70;99.90;;;;;;5050113;28;20032;-67
2022/11/11 08:55:17;;;;;;;7.97;5.90;;;5.70;99.90;;;;;;5065981;28;20032;-69
2022/11/11 08:57:43;;;;;;;10.60;6.57;;;5.70;99.90;;;;;;5052313;28;20104;-68
2022/11/11 09:00:09;;;;;;;9.63;7.13;;;5.80;99.90;;;;;;5059845;28;20036;-68
2022/11/11 09:02:35;;;;;;;9.95;7.50;;;5.80;99.90;;;;;;5066093;28;20120;-68
2022/11/11 09:05:02;;;;;;;12.73;7.50;;;5.90;99.90;;;;;;5064845;28;20117;-67
2022/11/11 09:07:27;;;;;;;15.25;8.48;;;6.10;99.90;;;;;;5059365;28;20032;-69
2022/11/11 09:09:53;;;;;;;11.05;8.02;;;6.20;99.90;;;;;;5059509;28;20467;-67
2022/11/11 09:12:19;;;;;;;11.90;7.25;;;6.40;99.90;;;;;;5062042;28;20057;-67
2022/11/11 09:14:45;;;;;;;15.75;7.45;;;6.50;99.90;;;;;;5050121;28;20156;-68
2022/11/11 09:17:10;;;;;;;10.68;6.25;;;6.60;99.90;;;;;;5064359;28;20051;-70
2022/11/11 09:19:36;;;;;;;9.98;6.45;;;6.80;99.90;;;;;;5057695;28;20168;-70
2022/11/11 09:22:02;;;;;;;9.57;6.45;;;6.90;99.90;;;;;;5057669;28;20041;-70
2022/11/11 09:24:27;;;;;;;9.55;6.97;;;6.90;99.90;;;;;;5058168;28;20029;-69
2022/11/11 09:26:53;;;;;;;10.55;6.95;;;7.00;99.90;;;;;;5061283;28;20081;-69
2022/11/11 09:29:19;;;;;;;11.00;7.18;;;7.10;99.90;;;;;;5055251;28;20032;-70
2022/11/11 09:31:45;;;;;;;11.20;6.90;;;7.20;99.90;;;;;;5054716;28;20140;-69
2022/11/11 09:34:12;;;;;;;12.23;6.38;;;7.40;99.90;;;;;;5062817;28;20378;-69
2022/11/11 09:36:37;;;;;;;12.13;6.95;;;7.50;99.90;;;;;;5048574;28;20029;-70
2022/11/11 09:39:03;;;;;;;12.07;6.88;;;7.60;99.90;;;;;;5055136;28;20024;-69
2022/11/11 09:41:41;;;;;;;9.02;6.55;;;7.80;99.90;;;;;;5069670;28;20033;-70
2022/11/11 09:44:34;;;;;;;11.43;7.05;;;7.90;99.90;;;;;;5055358;28;20028;-71
2022/11/11 09:47:16;;;;;;;12.07;6.47;;;8.00;99.90;;;;;;5064872;28;20033;-69
2022/11/11 09:49:45;;;;;;;10.40;6.32;;;8.10;99.90;;;;;;5069487;28;20396;-70
2022/11/11 09:52:19;;;;;;;7.22;5.93;;;8.20;99.90;;;;;;5062131;28;20036;-70
2022/11/11 09:55:08;;;;;;;10.40;6.68;;;8.20;99.90;;;;;;5060625;28;20043;-69
2022/11/11 09:57:41;;;;;;;9.60;6.35;;;8.40;99.90;;;;;;5069094;28;20125;-69
2022/11/11 10:00:28;;;;;;;11.18;6.25;;;8.50;99.90;;;;;;5053342;28;20029;-69
2022/11/11 10:03:11;;;;;;;11.20;6.68;;;8.60;99.90;;;;;;5057435;28;20029;-70
2022/11/11 10:06:02;;;;;;;11.48;7.18;;;8.80;99.90;;;;;;5065263;28;20504;-69
2022/11/11 10:08:36;;;;;;;7.47;6.25;;;9.00;99.90;;;;;;5058648;28;20028;-70
2022/11/11 10:11:10;;;;;;;9.73;6.60;;;9.10;99.90;;;;;;5068816;28;20044;-68
2022/11/11 10:13:37;;;;;;;10.13;6.38;;;9.20;99.90;;;;;;5069466;28;20028;-70
2022/11/11 10:16:30;;;;;;;8.20;6.00;;;9.30;99.90;;;;;;5072950;28;20086;-69
2022/11/11 10:18:56;;;;;;;10.05;6.45;;;9.40;99.90;;;;;;5066978;28;20037;-69
2022/11/11 10:21:33;;;;;;;10.15;6.43;;;9.50;99.90;;;;;;5065748;28;20481;-71
2022/11/11 10:24:03;;;;;;;6.75;5.50;;;9.50;99.90;;;;;;5072353;28;20031;-69
2022/11/11 10:26:41;;;;;;;9.90;6.60;;;9.50;99.90;;;;;;5057672;28;20028;-69
2022/11/11 10:29:20;;;;;;;9.60;6.90;;;9.50;99.90;;;;;;5069239;28;20037;-69
2022/11/11 10:32:01;;;;;;;10.13;6.38;;;9.50;99.90;;;;;;5066430;28;20062;-69
2022/11/11 10:34:32;;;;;;;13.15;7.35;;;9.70;99.90;;;;;;5053679;28;20078;-70
2022/11/11 10:36:59;;;;;;;10.00;6.20;;;9.80;99.90;;;;;;5059434;28;20047;-69
2022/11/11 10:40:09;;;;;;;10.43;6.93;;;9.80;99.90;;;;;;5054688;28;20033;-70
2022/11/11 10:42:34;;;;;;;7.87;5.70;;;10.00;99.90;;;;;;5067170;28;20066;-69
2022/11/11 10:45:01;;;;;;;8.23;6.50;;;10.10;99.90;;;;;;5068192;28;20032;-68
2022/11/11 10:47:41;;;;;;;10.13;6.03;;;10.30;99.90;;;;;;5060841;28;20096;-68
2022/11/11 10:50:13;;;;;;;9.27;5.80;;;10.40;99.90;;;;;;5060494;28;20037;-69
2022/11/11 10:52:47;;;;;;;10.65;6.55;;;10.50;99.90;;;;;;5054332;28;20032;-69
2022/11/11 10:55:31;;;;;;;10.38;6.00;;;10.60;99.90;;;;;;5059082;28;20020;-68
2022/11/11 10:58:10;;;;;;;8.55;5.32;;;10.60;99.90;;;;;;5062398;28;20044;-69
2022/11/11 11:00:37;;;;;;;8.10;5.80;;;10.70;99.90;;;;;;5047176;28;20032;-70
2022/11/11 11:03:20;;;;;;;7.88;5.95;;;10.80;99.90;;;;;;5062691;28;20033;-70
2022/11/11 11:06:02;;;;;;;8.15;5.28;;;10.80;99.90;;;;;;5055641;28;20119;-71
2022/11/11 11:08:34;;;;;;;9.60;6.03;;;10.90;99.90;;;;;;5051893;28;20104;-69
2022/11/11 11:11:06;;;;;;;11.25;6.10;;;11.10;99.90;;;;;;5070338;28;20035;-70
2022/11/11 11:13:48;;;;;;;7.90;5.10;;;11.20;99.90;;;;;;5071151;28;20028;-69
2022/11/11 11:16:38;;;;;;;10.60;6.38;;;11.30;99.90;;;;;;5065504;28;20054;-69
2022/11/11 11:19:16;;;;;;;9.00;5.97;;;11.50;99.90;;;;;;5071415;28;20037;-69
2022/11/11 11:21:57;;;;;;;9.90;5.85;;;11.70;99.90;;;;;;5071464;28;20530;-69
2022/11/11 11:24:27;;;;;;;9.20;5.07;;;11.80;99.90;;;;;;5066575;28;20048;-70
2022/11/11 11:26:58;;;;;;;9.50;5.77;;;11.70;99.90;;;;;;5074693;28;20050;-69
2022/11/11 11:29:50;;;;;;;9.45;5.00;;;11.80;99.90;;;;;;5072669;28;20278;-71
2022/11/11 11:32:22;;;;;;;18.00;5.75;;;11.80;99.90;;;;;;5062855;28;20045;-69
2022/11/11 11:34:52;;;;;;;9.80;5.55;;;11.70;99.90;;;;;;5070100;28;20093;-69
2022/11/11 11:37:21;;;;;;;10.40;5.57;;;11.70;99.90;;;;;;5070501;28;20116;-68
2022/11/11 11:39:47;;;;;;;7.43;5.18;;;11.70;99.90;;;;;;5068921;28;20036;-68
2022/11/11 11:42:36;;;;;;;9.43;5.57;;;11.70;99.90;;;;;;5070512;28;20082;-67
2022/11/11 11:45:21;;;;;;;7.95;6.00;;;11.70;99.90;;;;;;5070668;28;20034;-70
2022/11/11 11:48:18;;;;;;;10.23;5.93;;;11.70;99.90;;;;;;5067309;28;20028;-70
2022/11/11 11:50:51;;;;;;;9.13;6.45;;;11.70;99.90;;;;;;5052033;28;20052;-69
2022/11/11 11:53:58;;;;;;;8.25;5.65;;;11.70;99.90;;;;;;5071384;28;20024;-69
2022/11/11 11:56:43;;;;;;;9.80;5.90;;;11.70;99.90;;;;;;5061902;28;20052;-71
2022/11/11 11:59:29;;;;;;;11.07;5.28;;;11.70;99.90;;;;;;5052413;28;20047;-71
2022/11/11 12:01:58;;;;;;;7.07;5.32;;;11.70;99.90;;;;;;5059969;28;20497;-69
2022/11/11 12:04:57;;;;;;;9.18;5.65;;;11.70;99.90;;;;;;5069595;28;20890;-71
2022/11/11 12:07:57;;;;;;;8.32;5.55;;;11.80;99.90;;;;;;5053651;28;20081;-70
2022/11/11 12:10:29;;;;;;;12.20;6.60;;;11.90;99.90;;;;;;5066070;28;20481;-70
2022/11/11 12:13:13;;;;;;;8.18;5.70;;;12.10;99.90;;;;;;5053198;28;20540;-67
2022/11/11 12:15:43;;;;;;;9.05;4.93;;;12.20;99.90;;;;;;5054256;28;20024;-67
2022/11/11 12:18:46;;;;;;;7.72;5.60;;;12.30;99.90;;;;;;5060038;28;20434;-67
2022/11/11 12:21:17;;;;;;;7.75;5.13;;;12.50;99.90;;;;;;5052293;28;20106;-67
2022/11/11 12:23:42;;;;;;;7.15;4.75;;;12.60;99.90;;;;;;5063131;28;20040;-71
2022/11/11 12:26:18;;;;;;;7.78;5.43;;;12.70;99.90;;;;;;5067327;28;20122;-68
2022/11/11 12:28:52;;;;;;;6.50;4.60;;;12.80;99.90;;;;;;5066003;28;20021;-68
2022/11/11 12:31:30;;;;;;;7.85;5.63;;;12.90;99.90;;;;;;5069819;28;20558;-70
2022/11/11 12:34:07;;;;;;;7.85;5.38;;;;;;;;;;5070144;28;20075;-68
2022/11/11 12:36:58;;;;;;;10.25;4.97;;;13.10;99.90;;;;;;5068417;28;20025;-68
2022/11/11 12:39:42;;;;;;;11.10;5.65;;;13.10;99.90;;;;;;5070012;28;20032;-72
2022/11/11 12:42:21;;;;;;;7.07;5.68;;;13.00;99.90;;;;;;5065616;28;20040;-68
2022/11/11 12:45:08;;;;;;;8.50;5.13;;;13.10;99.90;;;;;;5067161;28;20048;-68
2022/11/11 12:48:02;;;;;;;10.30;5.45;;;13.10;99.90;;;;;;5063859;28;20031;-68
2022/11/11 12:50:53;;;;;;;10.02;5.10;;;13.20;99.90;;;;;;5067423;28;20056;-69
2022/11/11 12:53:39;;;;;;;9.07;5.10;;;13.30;99.90;;;;;;5069335;28;20032;-69
2022/11/11 12:56:14;;;;;;;6.90;4.93;;;13.40;99.90;;;;;;5069407;28;20039;-69
2022/11/11 12:59:05;;;;;;;9.73;4.43;;;13.50;99.90;;;;;;5068687;28;20028;-69
2022/11/11 13:01:37;;;;;;;8.07;4.68;;;13.60;99.90;;;;;;5055207;28;20052;-69
2022/11/11 13:04:47;;;;;;;6.55;4.25;;;13.60;99.90;;;;;;5064640;28;20036;-69
2022/11/11 13:07:45;;;;;;;7.18;3.65;;;13.60;99.90;;;;;;5038379;28;20424;-70
2022/11/11 13:10:46;;;;;;;10.18;4.80;;;13.50;99.90;;;;;;5066732;28;20502;-69
2022/11/11 13:13:17;;;;;;;;;;;13.50;99.90;;;;;;5066754;28;20039;-69
2022/11/11 13:15:43;;;;;;;5.70;3.67;;;13.40;99.90;;;;;;5072906;28;19904;-69
2022/11/11 13:18:17;;;;;;;6.78;4.13;;;13.40;99.90;;;;;;5073445;28;20032;-69
2022/11/11 13:20:58;;;;;;;7.00;4.07;;;13.30;99.90;;;;;;5071607;28;20045;-69
2022/11/11 13:23:24;;;;;;;9.25;4.43;;;13.40;99.90;;;;;;5064918;28;20024;-72
2022/11/11 13:25:59;;;;;;;7.65;4.13;;;13.40;99.90;;;;;;5068678;28;20112;-70
2022/11/11 13:28:35;;;;;;;6.00;3.70;;;13.60;99.90;;;;;;5072202;28;20120;-71
2022/11/11 13:31:17;;;;;;;6.40;3.85;;;13.70;99.90;;;;;;5066111;28;20062;-69
2022/11/11 13:33:47;;;;;;;6.78;3.97;;;13.80;99.90;;;;;;5057531;28;20023;-69
2022/11/11 13:36:16;;;;;;;6.93;3.72;;;13.90;99.90;;;;;;5068736;28;20032;-69
2022/11/11 13:38:50;;;;;;;8.83;4.33;;;14.00;99.90;;;;;;5057833;28;20067;-69
2022/11/11 13:41:48;;;;;;;8.80;3.63;;;14.10;99.90;;;;;;5062655;28;20285;-69
2022/11/11 13:44:30;;;;;;;9.05;3.97;;;14.00;99.90;;;;;;5048830;28;20048;-68
2022/11/11 13:47:05;;;;;;;5.18;3.25;;;13.90;99.90;;;;;;5073097;28;20039;-68
2022/11/11 13:49:49;;;;;;;5.75;2.97;;;13.90;99.90;;;;;;5058075;28;20024;-70
2022/11/11 13:52:26;;;;;;;6.47;3.70;;;13.80;99.90;;;;;;5070298;28;20161;-68
2022/11/11 13:54:58;;;;;;;7.47;3.85;;;13.80;99.90;;;;;;5064263;28;20381;-69
2022/11/11 13:57:30;;;;;;;8.05;3.83;;;13.80;99.90;;;;;;5065096;28;20050;-70
2022/11/11 14:00:03;;;;;;;5.97;3.42;;;13.80;99.90;;;;;;5062153;28;20367;-69
2022/11/11 14:02:30;;;;;;;7.65;3.72;;;13.80;99.90;;;;;;5070873;28;20070;-69
2022/11/11 14:05:02;;;;;;;5.72;4.22;;;13.80;99.90;;;;;;5064849;28;20040;-69
2022/11/11 14:07:43;;;;;;;5.45;3.60;;;13.90;99.90;;;;;;5065243;28;20064;-69
2022/11/11 14:10:30;;;;;;;8.27;4.10;;;13.90;99.90;;;;;;5071013;28;20040;-68
2022/11/11 14:13:20;;;;;;;8.57;4.05;;;13.90;99.90;;;;;;5067785;28;20038;-69